Airfield :







YOU CAN JOIN US ON...

 
LOGIN :

Register | Disclaimer

   EN    FR    IT 

 









Legend :    VFR   Marginal VFR   IFR   Intensive IFR   Very Intensive IFR
Visi :
Ceiling :
>= 8 km
>= 3000ft
5 to 8 km
1000 to 3000 ft
1500m to 5 km
500 to 1000 ft
800 to 1500m
200 to 500 ft
< 800m
< 200 ft
Symbols :   Thunderstorms  Fog  Heavy snow  Heavy precipitations  Wind > 20 kt






- Airport Elevation : 124 ft
- IATA code : YGV


CYGV - Havre St Pierre

CURRENT METAR :
  • 241000Z AUTO 28006KT 9SM CLR M12/M16 A3033 RMK PRESRR SLP275

EXPIRED METARs :
  • 240900Z AUTO 28009KT 9SM CLR M10/M16 A3027 RMK SLP255
  • 240800Z AUTO 28012KT 9SM CLR M09/M14 A3024 RMK PRESRR SLP245

TAF TAF CYGV
Valid from the 24 at 08:00 until the 24 at 20:00 UTC


240738Z 2408/2420 30010KT P6SM SCT030
TEMPO 2408/2412 BKN030 RMK FCST BASED ON AUTO OBS. NXT FCST BY 241400Z



MET'MAP, your aeronautical weather chart ! - Copyright ORBIFLY December 2007 - Disclaimer

ORBIFLY MET'MAP TEAM :

Programming & Development : Alexandra Zaïnal
Concept & original design : Baudouin d'Aumeries
Assistance for programming : Marc-Olivier Méhu
Technical & hardware support : Manuel Goepfert

Contact : metmap@orbifly.com




SOURCES & CREDITS :

   NOAA